sensor_id;sensor_type;location;lat;lon;timestamp;P1;durP1;ratioP1;P2;durP2;ratioP2
68196;SDS011;55019;49.382;11.358;2022-08-03T00:01:48;2.73;;;2.53;;
68196;SDS011;55019;49.382;11.358;2022-08-03T00:04:14;2.55;;;2.45;;
68196;SDS011;55019;49.382;11.358;2022-08-03T00:06:40;2.50;;;2.30;;
68196;SDS011;55019;49.382;11.358;2022-08-03T00:09:06;3.17;;;2.47;;
68196;SDS011;55019;49.382;11.358;2022-08-03T00:11:32;2.47;;;2.28;;
68196;SDS011;55019;49.382;11.358;2022-08-03T00:13:58;2.60;;;2.40;;
68196;SDS011;55019;49.382;11.358;2022-08-03T00:16:24;4.55;;;2.40;;
68196;SDS011;55019;49.382;11.358;2022-08-03T00:18:50;2.70;;;2.50;;
68196;SDS011;55019;49.382;11.358;2022-08-03T00:21:16;2.65;;;2.10;;
68196;SDS011;55019;49.382;11.358;2022-08-03T00:23:41;2.40;;;2.30;;
68196;SDS011;55019;49.382;11.358;2022-08-03T00:26:07;2.30;;;2.17;;
68196;SDS011;55019;49.382;11.358;2022-08-03T00:28:32;2.67;;;2.47;;
68196;SDS011;55019;49.382;11.358;2022-08-03T00:30:58;2.90;;;2.20;;
68196;SDS011;55019;49.382;11.358;2022-08-03T00:33:23;2.53;;;2.37;;
68196;SDS011;55019;49.382;11.358;2022-08-03T00:35:49;4.17;;;2.63;;
68196;SDS011;55019;49.382;11.358;2022-08-03T00:38:16;4.03;;;2.90;;
68196;SDS011;55019;49.382;11.358;2022-08-03T00:40:42;3.33;;;2.78;;
68196;SDS011;55019;49.382;11.358;2022-08-03T00:43:07;4.10;;;2.53;;
68196;SDS011;55019;49.382;11.358;2022-08-03T00:45:33;2.75;;;2.40;;
68196;SDS011;55019;49.382;11.358;2022-08-03T00:48:06;2.60;;;2.50;;
68196;SDS011;55019;49.382;11.358;2022-08-03T00:50:33;2.28;;;2.17;;
68196;SDS011;55019;49.382;11.358;2022-08-03T00:53:01;2.88;;;2.42;;
68196;SDS011;55019;49.382;11.358;2022-08-03T00:55:28;2.92;;;2.72;;
68196;SDS011;55019;49.382;11.358;2022-08-03T00:57:54;5.13;;;2.67;;
68196;SDS011;55019;49.382;11.358;2022-08-03T01:00:21;2.50;;;2.15;;
68196;SDS011;55019;49.382;11.358;2022-08-03T01:02:49;2.70;;;2.50;;
68196;SDS011;55019;49.382;11.358;2022-08-03T01:05:15;3.40;;;2.47;;
68196;SDS011;55019;49.382;11.358;2022-08-03T01:13:24;2.90;;;2.67;;
68196;SDS011;55019;49.382;11.358;2022-08-03T01:18:40;2.50;;;2.30;;
68196;SDS011;55019;49.382;11.358;2022-08-03T01:21:26;2.60;;;2.40;;
68196;SDS011;55019;49.382;11.358;2022-08-03T01:24:18;1.97;;;1.80;;
68196;SDS011;55019;49.382;11.358;2022-08-03T01:35:12;2.90;;;1.85;;
68196;SDS011;55019;49.382;11.358;2022-08-03T01:37:43;2.20;;;2.10;;
68196;SDS011;55019;49.382;11.358;2022-08-03T01:40:15;2.30;;;2.10;;
68196;SDS011;55019;49.382;11.358;2022-08-03T01:42:43;2.28;;;2.13;;
68196;SDS011;55019;49.382;11.358;2022-08-03T01:45:12;5.10;;;2.38;;
68196;SDS011;55019;49.382;11.358;2022-08-03T01:47:40;2.70;;;2.50;;
68196;SDS011;55019;49.382;11.358;2022-08-03T01:50:08;2.50;;;2.30;;
68196;SDS011;55019;49.382;11.358;2022-08-03T01:52:36;2.55;;;2.33;;
68196;SDS011;55019;49.382;11.358;2022-08-03T01:55:05;4.13;;;2.30;;
68196;SDS011;55019;49.382;11.358;2022-08-03T01:57:32;2.20;;;2.00;;
68196;SDS011;55019;49.382;11.358;2022-08-03T02:00:00;2.40;;;2.30;;
68196;SDS011;55019;49.382;11.358;2022-08-03T02:02:27;3.07;;;2.33;;
68196;SDS011;55019;49.382;11.358;2022-08-03T02:04:55;2.75;;;2.55;;
68196;SDS011;55019;49.382;11.358;2022-08-03T02:07:22;5.93;;;2.60;;
68196;SDS011;55019;49.382;11.358;2022-08-03T02:09:50;3.72;;;2.80;;
68196;SDS011;55019;49.382;11.358;2022-08-03T02:12:17;2.33;;;2.22;;
68196;SDS011;55019;49.382;11.358;2022-08-03T02:14:44;2.23;;;2.00;;
68196;SDS011;55019;49.382;11.358;2022-08-03T02:17:12;2.50;;;2.25;;
68196;SDS011;55019;49.382;11.358;2022-08-03T02:19:38;2.25;;;2.10;;
68196;SDS011;55019;49.382;11.358;2022-08-03T02:22:07;2.88;;;2.60;;
68196;SDS011;55019;49.382;11.358;2022-08-03T02:24:35;2.25;;;2.15;;
68196;SDS011;55019;49.382;11.358;2022-08-03T02:27:00;4.23;;;2.60;;
68196;SDS011;55019;49.382;11.358;2022-08-03T02:29:34;2.60;;;2.47;;
68196;SDS011;55019;49.382;11.358;2022-08-03T02:32:03;2.58;;;2.38;;
68196;SDS011;55019;49.382;11.358;2022-08-03T02:34:30;2.93;;;2.23;;
68196;SDS011;55019;49.382;11.358;2022-08-03T02:36:59;2.40;;;2.30;;
68196;SDS011;55019;49.382;11.358;2022-08-03T02:39:24;2.28;;;2.08;;
68196;SDS011;55019;49.382;11.358;2022-08-03T02:41:56;2.97;;;2.38;;
68196;SDS011;55019;49.382;11.358;2022-08-03T02:44:27;2.27;;;2.07;;
68196;SDS011;55019;49.382;11.358;2022-08-03T02:47:05;2.17;;;2.00;;
68196;SDS011;55019;49.382;11.358;2022-08-03T02:49:33;2.50;;;2.30;;
68196;SDS011;55019;49.382;11.358;2022-08-03T02:52:00;2.28;;;2.08;;
68196;SDS011;55019;49.382;11.358;2022-08-03T02:54:28;2.55;;;2.35;;
68196;SDS011;55019;49.382;11.358;2022-08-03T02:56:54;2.47;;;2.33;;
68196;SDS011;55019;49.382;11.358;2022-08-03T02:59:22;2.45;;;2.25;;
68196;SDS011;55019;49.382;11.358;2022-08-03T03:01:48;2.50;;;2.30;;
68196;SDS011;55019;49.382;11.358;2022-08-03T03:04:15;4.35;;;2.40;;
68196;SDS011;55019;49.382;11.358;2022-08-03T03:06:42;2.58;;;2.20;;
68196;SDS011;55019;49.382;11.358;2022-08-03T03:09:08;4.80;;;2.23;;
68196;SDS011;55019;49.382;11.358;2022-08-03T03:11:34;2.63;;;2.45;;
68196;SDS011;55019;49.382;11.358;2022-08-03T03:14:02;4.07;;;2.60;;
68196;SDS011;55019;49.382;11.358;2022-08-03T03:16:28;2.37;;;2.23;;
68196;SDS011;55019;49.382;11.358;2022-08-03T03:18:55;3.10;;;2.80;;
68196;SDS011;55019;49.382;11.358;2022-08-03T03:21:22;2.85;;;2.58;;
68196;SDS011;55019;49.382;11.358;2022-08-03T03:23:49;2.88;;;2.67;;
68196;SDS011;55019;49.382;11.358;2022-08-03T03:26:15;3.43;;;2.20;;
68196;SDS011;55019;49.382;11.358;2022-08-03T03:28:41;2.65;;;2.47;;
68196;SDS011;55019;49.382;11.358;2022-08-03T03:31:07;2.58;;;2.40;;
68196;SDS011;55019;49.382;11.358;2022-08-03T03:33:33;3.10;;;2.70;;
68196;SDS011;55019;49.382;11.358;2022-08-03T03:35:59;3.00;;;2.22;;
68196;SDS011;55019;49.382;11.358;2022-08-03T03:38:25;2.75;;;2.55;;
68196;SDS011;55019;49.382;11.358;2022-08-03T03:40:51;2.83;;;2.63;;
68196;SDS011;55019;49.382;11.358;2022-08-03T03:43:17;3.43;;;2.47;;
68196;SDS011;55019;49.382;11.358;2022-08-03T03:45:42;2.60;;;2.40;;
68196;SDS011;55019;49.382;11.358;2022-08-03T03:48:09;3.10;;;2.80;;
68196;SDS011;55019;49.382;11.358;2022-08-03T03:50:35;2.95;;;2.75;;
68196;SDS011;55019;49.382;11.358;2022-08-03T03:53:01;2.58;;;2.30;;
68196;SDS011;55019;49.382;11.358;2022-08-03T03:55:28;4.32;;;3.00;;
68196;SDS011;55019;49.382;11.358;2022-08-03T03:57:54;2.53;;;2.33;;
68196;SDS011;55019;49.382;11.358;2022-08-03T04:00:20;2.63;;;2.28;;
68196;SDS011;55019;49.382;11.358;2022-08-03T04:02:46;4.90;;;2.10;;
68196;SDS011;55019;49.382;11.358;2022-08-03T04:05:12;4.00;;;2.88;;
68196;SDS011;55019;49.382;11.358;2022-08-03T04:08:00;2.77;;;2.57;;
68196;SDS011;55019;49.382;11.358;2022-08-03T04:16:13;2.97;;;2.78;;
68196;SDS011;55019;49.382;11.358;2022-08-03T04:18:40;2.80;;;2.60;;
68196;SDS011;55019;49.382;11.358;2022-08-03T04:21:12;3.03;;;2.70;;
68196;SDS011;55019;49.382;11.358;2022-08-03T04:23:42;3.22;;;2.50;;
68196;SDS011;55019;49.382;11.358;2022-08-03T04:26:11;4.60;;;2.63;;
68196;SDS011;55019;49.382;11.358;2022-08-03T04:28:39;2.92;;;2.72;;
68196;SDS011;55019;49.382;11.358;2022-08-03T04:31:06;2.60;;;2.40;;
68196;SDS011;55019;49.382;11.358;2022-08-03T04:33:32;3.63;;;2.90;;
68196;SDS011;55019;49.382;11.358;2022-08-03T04:36:00;2.83;;;2.63;;
68196;SDS011;55019;49.382;11.358;2022-08-03T04:38:34;3.47;;;2.85;;
68196;SDS011;55019;49.382;11.358;2022-08-03T04:41:04;3.35;;;2.78;;
68196;SDS011;55019;49.382;11.358;2022-08-03T04:43:32;5.07;;;2.92;;
68196;SDS011;55019;49.382;11.358;2022-08-03T04:45:58;2.90;;;2.70;;
68196;SDS011;55019;49.382;11.358;2022-08-03T04:48:27;2.90;;;2.70;;
68196;SDS011;55019;49.382;11.358;2022-08-03T04:50:53;2.90;;;2.70;;
68196;SDS011;55019;49.382;11.358;2022-08-03T04:53:19;2.80;;;2.60;;
68196;SDS011;55019;49.382;11.358;2022-08-03T04:55:45;4.13;;;2.80;;
68196;SDS011;55019;49.382;11.358;2022-08-03T04:58:10;3.60;;;2.80;;
68196;SDS011;55019;49.382;11.358;2022-08-03T05:00:36;2.92;;;2.53;;
68196;SDS011;55019;49.382;11.358;2022-08-03T05:03:02;2.90;;;2.70;;
68196;SDS011;55019;49.382;11.358;2022-08-03T05:05:27;2.97;;;2.70;;
68196;SDS011;55019;49.382;11.358;2022-08-03T05:07:53;3.00;;;2.80;;
68196;SDS011;55019;49.382;11.358;2022-08-03T05:10:18;2.83;;;2.63;;
68196;SDS011;55019;49.382;11.358;2022-08-03T05:12:44;5.83;;;2.93;;
68196;SDS011;55019;49.382;11.358;2022-08-03T05:15:12;3.55;;;3.25;;
68196;SDS011;55019;49.382;11.358;2022-08-03T05:17:38;3.45;;;2.83;;
68196;SDS011;55019;49.382;11.358;2022-08-03T05:20:03;3.13;;;2.87;;
68196;SDS011;55019;49.382;11.358;2022-08-03T05:22:29;4.97;;;3.05;;
68196;SDS011;55019;49.382;11.358;2022-08-03T05:24:55;3.50;;;2.53;;
68196;SDS011;55019;49.382;11.358;2022-08-03T05:27:20;3.97;;;3.33;;
68196;SDS011;55019;49.382;11.358;2022-08-03T05:29:46;3.30;;;3.10;;
68196;SDS011;55019;49.382;11.358;2022-08-03T05:32:13;6.05;;;3.13;;
68196;SDS011;55019;49.382;11.358;2022-08-03T05:34:39;3.87;;;2.70;;
68196;SDS011;55019;49.382;11.358;2022-08-03T05:37:04;3.13;;;2.47;;
68196;SDS011;55019;49.382;11.358;2022-08-03T05:39:31;3.30;;;3.00;;
68196;SDS011;55019;49.382;11.358;2022-08-03T05:41:57;4.23;;;3.10;;
68196;SDS011;55019;49.382;11.358;2022-08-03T05:44:23;6.18;;;3.10;;
68196;SDS011;55019;49.382;11.358;2022-08-03T05:46:49;4.90;;;2.60;;
68196;SDS011;55019;49.382;11.358;2022-08-03T05:49:15;4.47;;;2.90;;
68196;SDS011;55019;49.382;11.358;2022-08-03T05:51:40;4.37;;;2.90;;
68196;SDS011;55019;49.382;11.358;2022-08-03T05:54:09;3.85;;;2.70;;
68196;SDS011;55019;49.382;11.358;2022-08-03T05:56:34;5.57;;;2.70;;
68196;SDS011;55019;49.382;11.358;2022-08-03T05:59:00;3.08;;;2.47;;
68196;SDS011;55019;49.382;11.358;2022-08-03T06:01:25;4.27;;;3.20;;
68196;SDS011;55019;49.382;11.358;2022-08-03T06:03:50;6.63;;;2.70;;
68196;SDS011;55019;49.382;11.358;2022-08-03T06:06:16;3.50;;;2.53;;
68196;SDS011;55019;49.382;11.358;2022-08-03T06:08:43;2.97;;;2.35;;
68196;SDS011;55019;49.382;11.358;2022-08-03T06:11:09;2.88;;;2.30;;
68196;SDS011;55019;49.382;11.358;2022-08-03T06:13:35;5.70;;;2.60;;
68196;SDS011;55019;49.382;11.358;2022-08-03T06:16:03;3.80;;;2.30;;
68196;SDS011;55019;49.382;11.358;2022-08-03T06:18:29;2.75;;;2.55;;
68196;SDS011;55019;49.382;11.358;2022-08-03T06:20:55;5.20;;;2.30;;
68196;SDS011;55019;49.382;11.358;2022-08-03T06:23:20;3.27;;;2.27;;
68196;SDS011;55019;49.382;11.358;2022-08-03T06:25:49;3.03;;;2.10;;
68196;SDS011;55019;49.382;11.358;2022-08-03T06:28:14;2.90;;;2.20;;
68196;SDS011;55019;49.382;11.358;2022-08-03T06:30:44;2.70;;;2.50;;
68196;SDS011;55019;49.382;11.358;2022-08-03T06:33:10;3.13;;;2.15;;
68196;SDS011;55019;49.382;11.358;2022-08-03T06:35:36;3.03;;;2.30;;
68196;SDS011;55019;49.382;11.358;2022-08-03T06:38:01;2.00;;;1.85;;
68196;SDS011;55019;49.382;11.358;2022-08-03T06:40:27;5.60;;;2.23;;
68196;SDS011;55019;49.382;11.358;2022-08-03T06:42:59;2.75;;;2.10;;
68196;SDS011;55019;49.382;11.358;2022-08-03T06:45:26;2.93;;;2.27;;
68196;SDS011;55019;49.382;11.358;2022-08-03T06:48:13;2.00;;;1.80;;
68196;SDS011;55019;49.382;11.358;2022-08-03T06:50:39;2.40;;;2.20;;
68196;SDS011;55019;49.382;11.358;2022-08-03T06:53:05;4.22;;;2.30;;
68196;SDS011;55019;49.382;11.358;2022-08-03T06:55:33;1.90;;;1.80;;
68196;SDS011;55019;49.382;11.358;2022-08-03T06:57:59;2.57;;;1.80;;
68196;SDS011;55019;49.382;11.358;2022-08-03T07:00:24;2.33;;;2.10;;
68196;SDS011;55019;49.382;11.358;2022-08-03T07:02:50;2.58;;;1.90;;
68196;SDS011;55019;49.382;11.358;2022-08-03T07:05:16;4.20;;;2.20;;
68196;SDS011;55019;49.382;11.358;2022-08-03T07:07:42;5.63;;;2.10;;
68196;SDS011;55019;49.382;11.358;2022-08-03T07:10:08;4.35;;;2.70;;
68196;SDS011;55019;49.382;11.358;2022-08-03T07:12:34;3.08;;;2.88;;
68196;SDS011;55019;49.382;11.358;2022-08-03T07:15:00;3.37;;;2.23;;
68196;SDS011;55019;49.382;11.358;2022-08-03T07:17:26;2.97;;;2.40;;
68196;SDS011;55019;49.382;11.358;2022-08-03T07:19:52;3.60;;;2.40;;
68196;SDS011;55019;49.382;11.358;2022-08-03T07:22:18;4.63;;;2.50;;
68196;SDS011;55019;49.382;11.358;2022-08-03T07:24:43;3.63;;;2.10;;
68196;SDS011;55019;49.382;11.358;2022-08-03T07:27:09;3.40;;;2.22;;
68196;SDS011;55019;49.382;11.358;2022-08-03T07:29:35;2.43;;;2.07;;
68196;SDS011;55019;49.382;11.358;2022-08-03T07:32:04;5.60;;;2.50;;
68196;SDS011;55019;49.382;11.358;2022-08-03T07:34:30;2.65;;;1.92;;
68196;SDS011;55019;49.382;11.358;2022-08-03T07:36:56;3.20;;;1.90;;
68196;SDS011;55019;49.382;11.358;2022-08-03T07:39:21;2.47;;;1.70;;
68196;SDS011;55019;49.382;11.358;2022-08-03T07:41:47;3.10;;;1.77;;
68196;SDS011;55019;49.382;11.358;2022-08-03T07:44:15;1.73;;;1.63;;
68196;SDS011;55019;49.382;11.358;2022-08-03T07:46:41;2.95;;;1.92;;
68196;SDS011;55019;49.382;11.358;2022-08-03T07:49:07;2.30;;;1.90;;
68196;SDS011;55019;49.382;11.358;2022-08-03T07:51:32;2.37;;;1.90;;
68196;SDS011;55019;49.382;11.358;2022-08-03T07:53:58;2.92;;;2.20;;
68196;SDS011;55019;49.382;11.358;2022-08-03T07:56:24;3.00;;;2.10;;
68196;SDS011;55019;49.382;11.358;2022-08-03T07:58:50;2.63;;;1.95;;
68196;SDS011;55019;49.382;11.358;2022-08-03T08:01:16;4.85;;;2.53;;
68196;SDS011;55019;49.382;11.358;2022-08-03T08:03:43;3.30;;;2.00;;
68196;SDS011;55019;49.382;11.358;2022-08-03T08:06:12;2.10;;;1.90;;
68196;SDS011;55019;49.382;11.358;2022-08-03T08:08:38;3.53;;;1.90;;
68196;SDS011;55019;49.382;11.358;2022-08-03T08:11:03;2.13;;;1.92;;
68196;SDS011;55019;49.382;11.358;2022-08-03T08:13:29;4.50;;;2.15;;
68196;SDS011;55019;49.382;11.358;2022-08-03T08:15:54;3.00;;;1.97;;
68196;SDS011;55019;49.382;11.358;2022-08-03T08:18:20;4.47;;;2.00;;
68196;SDS011;55019;49.382;11.358;2022-08-03T08:20:45;2.10;;;2.00;;
68196;SDS011;55019;49.382;11.358;2022-08-03T08:23:11;2.20;;;2.10;;
68196;SDS011;55019;49.382;11.358;2022-08-03T08:25:37;3.88;;;2.05;;
68196;SDS011;55019;49.382;11.358;2022-08-03T08:28:02;1.93;;;1.77;;
68196;SDS011;55019;49.382;11.358;2022-08-03T08:30:29;3.35;;;1.95;;
68196;SDS011;55019;49.382;11.358;2022-08-03T08:32:55;2.70;;;2.23;;
68196;SDS011;55019;49.382;11.358;2022-08-03T08:35:21;7.50;;;2.28;;
68196;SDS011;55019;49.382;11.358;2022-08-03T08:37:47;2.00;;;1.90;;
68196;SDS011;55019;49.382;11.358;2022-08-03T08:40:12;4.50;;;2.20;;
68196;SDS011;55019;49.382;11.358;2022-08-03T08:42:43;2.03;;;1.83;;
68196;SDS011;55019;49.382;11.358;2022-08-03T08:45:09;2.88;;;2.00;;
68196;SDS011;55019;49.382;11.358;2022-08-03T08:47:36;3.38;;;1.92;;
68196;SDS011;55019;49.382;11.358;2022-08-03T08:50:03;6.07;;;2.40;;
68196;SDS011;55019;49.382;11.358;2022-08-03T08:52:32;2.30;;;2.10;;
68196;SDS011;55019;49.382;11.358;2022-08-03T08:55:00;2.95;;;1.58;;
68196;SDS011;55019;49.382;11.358;2022-08-03T08:57:30;3.67;;;1.70;;
68196;SDS011;55019;49.382;11.358;2022-08-03T09:00:07;3.45;;;1.70;;
68196;SDS011;55019;49.382;11.358;2022-08-03T09:02:35;2.83;;;1.40;;
68196;SDS011;55019;49.382;11.358;2022-08-03T09:05:01;1.42;;;1.33;;
68196;SDS011;55019;49.382;11.358;2022-08-03T09:07:27;2.15;;;1.27;;
68196;SDS011;55019;49.382;11.358;2022-08-03T09:09:53;3.17;;;1.50;;
68196;SDS011;55019;49.382;11.358;2022-08-03T09:12:19;1.73;;;1.63;;
68196;SDS011;55019;49.382;11.358;2022-08-03T09:14:44;1.60;;;1.50;;
68196;SDS011;55019;49.382;11.358;2022-08-03T09:17:10;2.37;;;1.57;;
68196;SDS011;55019;49.382;11.358;2022-08-03T09:19:36;2.87;;;1.53;;
68196;SDS011;55019;49.382;11.358;2022-08-03T09:22:08;1.47;;;1.37;;
68196;SDS011;55019;49.382;11.358;2022-08-03T09:24:37;2.30;;;1.40;;
68196;SDS011;55019;49.382;11.358;2022-08-03T09:27:17;1.40;;;1.30;;
68196;SDS011;55019;49.382;11.358;2022-08-03T09:29:46;4.53;;;1.50;;
68196;SDS011;55019;49.382;11.358;2022-08-03T09:32:15;1.73;;;1.40;;
68196;SDS011;55019;49.382;11.358;2022-08-03T09:34:45;1.52;;;1.40;;
68196;SDS011;55019;49.382;11.358;2022-08-03T09:37:15;4.00;;;1.55;;
68196;SDS011;55019;49.382;11.358;2022-08-03T09:39:44;1.27;;;1.02;;
68196;SDS011;55019;49.382;11.358;2022-08-03T09:42:12;1.30;;;1.20;;
68196;SDS011;55019;49.382;11.358;2022-08-03T09:47:10;1.13;;;0.98;;
68196;SDS011;55019;49.382;11.358;2022-08-03T09:49:37;1.17;;;1.08;;
68196;SDS011;55019;49.382;11.358;2022-08-03T09:52:18;6.18;;;1.20;;
68196;SDS011;55019;49.382;11.358;2022-08-03T09:54:50;1.80;;;0.90;;
68196;SDS011;55019;49.382;11.358;2022-08-03T09:57:26;4.10;;;0.90;;
68196;SDS011;55019;49.382;11.358;2022-08-03T09:59:52;1.05;;;1.05;;
68196;SDS011;55019;49.382;11.358;2022-08-03T10:02:29;1.45;;;1.02;;
68196;SDS011;55019;49.382;11.358;2022-08-03T10:04:55;9.67;;;1.10;;
68196;SDS011;55019;49.382;11.358;2022-08-03T10:07:21;2.43;;;0.80;;
68196;SDS011;55019;49.382;11.358;2022-08-03T10:09:55;0.98;;;0.90;;
68196;SDS011;55019;49.382;11.358;2022-08-03T10:12:21;1.25;;;0.98;;
68196;SDS011;55019;49.382;11.358;2022-08-03T10:14:48;1.48;;;0.80;;
68196;SDS011;55019;49.382;11.358;2022-08-03T10:17:13;3.77;;;0.90;;
68196;SDS011;55019;49.382;11.358;2022-08-03T10:19:39;1.30;;;0.90;;
68196;SDS011;55019;49.382;11.358;2022-08-03T10:22:18;2.67;;;0.80;;
68196;SDS011;55019;49.382;11.358;2022-08-03T10:27:29;1.05;;;1.05;;
68196;SDS011;55019;49.382;11.358;2022-08-03T10:29:59;1.25;;;0.93;;
68196;SDS011;55019;49.382;11.358;2022-08-03T10:32:28;1.20;;;1.10;;
68196;SDS011;55019;49.382;11.358;2022-08-03T10:35:01;1.98;;;1.10;;
68196;SDS011;55019;49.382;11.358;2022-08-03T10:37:31;1.25;;;1.10;;
68196;SDS011;55019;49.382;11.358;2022-08-03T10:39:59;1.02;;;0.93;;
68196;SDS011;55019;49.382;11.358;2022-08-03T10:42:25;0.88;;;0.68;;
68196;SDS011;55019;49.382;11.358;2022-08-03T10:44:59;0.93;;;0.80;;
68196;SDS011;55019;49.382;11.358;2022-08-03T10:47:29;2.17;;;0.88;;
68196;SDS011;55019;49.382;11.358;2022-08-03T10:49:55;1.10;;;0.98;;
68196;SDS011;55019;49.382;11.358;2022-08-03T10:52:21;1.27;;;1.05;;
68196;SDS011;55019;49.382;11.358;2022-08-03T10:54:47;1.33;;;1.00;;
68196;SDS011;55019;49.382;11.358;2022-08-03T10:57:41;1.00;;;0.90;;
68196;SDS011;55019;49.382;11.358;2022-08-03T11:00:07;1.52;;;0.88;;
68196;SDS011;55019;49.382;11.358;2022-08-03T11:05:42;1.20;;;1.00;;
68196;SDS011;55019;49.382;11.358;2022-08-03T11:08:21;1.85;;;0.70;;
68196;SDS011;55019;49.382;11.358;2022-08-03T11:10:47;1.52;;;1.42;;
68196;SDS011;55019;49.382;11.358;2022-08-03T11:13:15;1.27;;;0.90;;
68196;SDS011;55019;49.382;11.358;2022-08-03T11:15:43;1.05;;;0.70;;
68196;SDS011;55019;49.382;11.358;2022-08-03T11:18:11;1.87;;;0.80;;
68196;SDS011;55019;49.382;11.358;2022-08-03T11:23:14;1.48;;;1.00;;
68196;SDS011;55019;49.382;11.358;2022-08-03T11:28:34;1.25;;;1.10;;
68196;SDS011;55019;49.382;11.358;2022-08-03T11:36:29;1.88;;;1.00;;
68196;SDS011;55019;49.382;11.358;2022-08-03T11:39:14;1.37;;;0.90;;
68196;SDS011;55019;49.382;11.358;2022-08-03T11:41:40;3.88;;;1.38;;
68196;SDS011;55019;49.382;11.358;2022-08-03T11:44:05;1.10;;;0.90;;
68196;SDS011;55019;49.382;11.358;2022-08-03T11:46:35;1.25;;;1.00;;
68196;SDS011;55019;49.382;11.358;2022-08-03T11:49:05;1.47;;;1.10;;
68196;SDS011;55019;49.382;11.358;2022-08-03T11:51:33;3.78;;;1.40;;
68196;SDS011;55019;49.382;11.358;2022-08-03T11:54:00;5.70;;;1.27;;
68196;SDS011;55019;49.382;11.358;2022-08-03T11:56:27;2.17;;;0.93;;
68196;SDS011;55019;49.382;11.358;2022-08-03T11:59:07;1.25;;;1.13;;
68196;SDS011;55019;49.382;11.358;2022-08-03T12:01:32;1.00;;;0.90;;
68196;SDS011;55019;49.382;11.358;2022-08-03T12:04:01;2.80;;;1.02;;
68196;SDS011;55019;49.382;11.358;2022-08-03T12:06:28;1.70;;;0.90;;
68196;SDS011;55019;49.382;11.358;2022-08-03T12:08:54;3.05;;;1.13;;
68196;SDS011;55019;49.382;11.358;2022-08-03T12:11:19;3.70;;;0.97;;
68196;SDS011;55019;49.382;11.358;2022-08-03T12:13:45;1.13;;;1.10;;
68196;SDS011;55019;49.382;11.358;2022-08-03T12:16:18;1.90;;;1.00;;
68196;SDS011;55019;49.382;11.358;2022-08-03T12:18:57;1.90;;;1.10;;
68196;SDS011;55019;49.382;11.358;2022-08-03T12:21:23;3.63;;;1.40;;
68196;SDS011;55019;49.382;11.358;2022-08-03T12:23:49;5.83;;;1.10;;
68196;SDS011;55019;49.382;11.358;2022-08-03T12:26:16;2.10;;;1.10;;
68196;SDS011;55019;49.382;11.358;2022-08-03T12:28:48;1.20;;;1.10;;
68196;SDS011;55019;49.382;11.358;2022-08-03T12:31:17;1.30;;;1.20;;
68196;SDS011;55019;49.382;11.358;2022-08-03T12:36:30;1.40;;;1.10;;
68196;SDS011;55019;49.382;11.358;2022-08-03T12:38:58;1.13;;;1.08;;
68196;SDS011;55019;49.382;11.358;2022-08-03T12:41:29;3.40;;;1.00;;
68196;SDS011;55019;49.382;11.358;2022-08-03T12:43:57;2.97;;;0.90;;
68196;SDS011;55019;49.382;11.358;2022-08-03T12:46:27;1.92;;;1.10;;
68196;SDS011;55019;49.382;11.358;2022-08-03T12:49:11;2.80;;;1.10;;
68196;SDS011;55019;49.382;11.358;2022-08-03T12:54:08;5.30;;;0.95;;
68196;SDS011;55019;49.382;11.358;2022-08-03T12:56:59;3.03;;;1.20;;
68196;SDS011;55019;49.382;11.358;2022-08-03T12:59:26;2.35;;;1.05;;
68196;SDS011;55019;49.382;11.358;2022-08-03T13:01:53;5.43;;;1.10;;
68196;SDS011;55019;49.382;11.358;2022-08-03T13:04:32;2.77;;;1.20;;
68196;SDS011;55019;49.382;11.358;2022-08-03T13:07:00;3.75;;;1.30;;
68196;SDS011;55019;49.382;11.358;2022-08-03T13:09:26;3.13;;;0.73;;
68196;SDS011;55019;49.382;11.358;2022-08-03T13:12:11;1.23;;;0.82;;
68196;SDS011;55019;49.382;11.358;2022-08-03T13:14:38;1.90;;;0.93;;
68196;SDS011;55019;49.382;11.358;2022-08-03T13:17:04;1.05;;;0.82;;
68196;SDS011;55019;49.382;11.358;2022-08-03T13:19:34;1.10;;;0.95;;
68196;SDS011;55019;49.382;11.358;2022-08-03T13:22:00;3.42;;;1.10;;
68196;SDS011;55019;49.382;11.358;2022-08-03T13:24:36;1.23;;;1.10;;
68196;SDS011;55019;49.382;11.358;2022-08-03T13:27:02;2.50;;;1.20;;
68196;SDS011;55019;49.382;11.358;2022-08-03T13:29:29;4.63;;;1.20;;
68196;SDS011;55019;49.382;11.358;2022-08-03T13:31:54;2.13;;;1.07;;
68196;SDS011;55019;49.382;11.358;2022-08-03T13:34:20;3.73;;;1.50;;
68196;SDS011;55019;49.382;11.358;2022-08-03T13:36:45;1.75;;;0.60;;
68196;SDS011;55019;49.382;11.358;2022-08-03T13:39:10;1.23;;;1.13;;
68196;SDS011;55019;49.382;11.358;2022-08-03T13:41:36;1.00;;;1.00;;
68196;SDS011;55019;49.382;11.358;2022-08-03T13:44:01;2.20;;;1.10;;
68196;SDS011;55019;49.382;11.358;2022-08-03T13:46:27;1.17;;;0.88;;
68196;SDS011;55019;49.382;11.358;2022-08-03T13:48:52;3.77;;;1.13;;
68196;SDS011;55019;49.382;11.358;2022-08-03T13:51:18;1.07;;;0.90;;
68196;SDS011;55019;49.382;11.358;2022-08-03T13:53:43;1.00;;;0.90;;
68196;SDS011;55019;49.382;11.358;2022-08-03T13:56:09;3.90;;;1.20;;
68196;SDS011;55019;49.382;11.358;2022-08-03T13:58:34;1.47;;;1.10;;
68196;SDS011;55019;49.382;11.358;2022-08-03T14:01:02;1.73;;;1.30;;
68196;SDS011;55019;49.382;11.358;2022-08-03T14:03:28;3.65;;;1.10;;
68196;SDS011;55019;49.382;11.358;2022-08-03T14:05:53;2.30;;;1.10;;
68196;SDS011;55019;49.382;11.358;2022-08-03T14:08:19;1.97;;;1.03;;
68196;SDS011;55019;49.382;11.358;2022-08-03T14:10:44;1.15;;;0.95;;
68196;SDS011;55019;49.382;11.358;2022-08-03T14:13:11;1.33;;;1.33;;
68196;SDS011;55019;49.382;11.358;2022-08-03T14:15:39;1.60;;;1.00;;
68196;SDS011;55019;49.382;11.358;2022-08-03T14:18:08;1.43;;;1.30;;
68196;SDS011;55019;49.382;11.358;2022-08-03T14:20:33;0.80;;;0.80;;
68196;SDS011;55019;49.382;11.358;2022-08-03T14:22:59;0.90;;;0.90;;
68196;SDS011;55019;49.382;11.358;2022-08-03T14:25:24;1.80;;;1.00;;
68196;SDS011;55019;49.382;11.358;2022-08-03T14:27:50;2.40;;;0.83;;
68196;SDS011;55019;49.382;11.358;2022-08-03T14:30:15;4.07;;;1.10;;
68196;SDS011;55019;49.382;11.358;2022-08-03T14:32:41;1.30;;;1.20;;
68196;SDS011;55019;49.382;11.358;2022-08-03T14:35:07;2.92;;;0.90;;
68196;SDS011;55019;49.382;11.358;2022-08-03T14:37:33;4.45;;;0.90;;
68196;SDS011;55019;49.382;11.358;2022-08-03T14:39:58;3.73;;;1.30;;
68196;SDS011;55019;49.382;11.358;2022-08-03T14:42:24;1.27;;;1.17;;
68196;SDS011;55019;49.382;11.358;2022-08-03T14:44:49;3.27;;;1.00;;
68196;SDS011;55019;49.382;11.358;2022-08-03T14:47:15;1.43;;;0.90;;
68196;SDS011;55019;49.382;11.358;2022-08-03T14:49:40;1.13;;;1.00;;
68196;SDS011;55019;49.382;11.358;2022-08-03T14:52:06;1.70;;;1.00;;
68196;SDS011;55019;49.382;11.358;2022-08-03T14:54:31;2.73;;;1.00;;
68196;SDS011;55019;49.382;11.358;2022-08-03T14:56:57;1.23;;;1.00;;
68196;SDS011;55019;49.382;11.358;2022-08-03T14:59:24;1.60;;;0.87;;
68196;SDS011;55019;49.382;11.358;2022-08-03T15:01:50;1.73;;;1.02;;
68196;SDS011;55019;49.382;11.358;2022-08-03T15:04:15;2.47;;;1.10;;
68196;SDS011;55019;49.382;11.358;2022-08-03T15:06:41;2.50;;;1.27;;
68196;SDS011;55019;49.382;11.358;2022-08-03T15:09:06;2.83;;;0.97;;
68196;SDS011;55019;49.382;11.358;2022-08-03T15:11:32;1.52;;;1.10;;
68196;SDS011;55019;49.382;11.358;2022-08-03T15:13:57;3.37;;;1.00;;
68196;SDS011;55019;49.382;11.358;2022-08-03T15:16:23;1.00;;;0.90;;
68196;SDS011;55019;49.382;11.358;2022-08-03T15:18:48;1.97;;;1.00;;
68196;SDS011;55019;49.382;11.358;2022-08-03T15:21:13;1.03;;;0.80;;
68196;SDS011;55019;49.382;11.358;2022-08-03T15:23:39;2.28;;;0.93;;